sensor_id;sensor_type;location;lat;lon;timestamp;pressure;altitude;pressure_sealevel;temperature;humidity
6395;BME280;3230;42.588;23.358;2023-02-16T00:01:24;92085.38;;;-3.40;100.00
6395;BME280;3230;42.588;23.358;2023-02-16T00:03:51;92083.59;;;-3.31;100.00
6395;BME280;3230;42.588;23.358;2023-02-16T00:06:17;92095.44;;;-3.38;100.00
6395;BME280;3230;42.588;23.358;2023-02-16T00:08:48;92091.28;;;-3.39;100.00
6395;BME280;3230;42.588;23.358;2023-02-16T00:11:17;92086.16;;;-3.39;100.00
6395;BME280;3230;42.588;23.358;2023-02-16T00:14:02;92086.66;;;-3.44;100.00
6395;BME280;3230;42.588;23.358;2023-02-16T00:16:28;92088.06;;;-3.41;100.00
6395;BME280;3230;42.588;23.358;2023-02-16T00:18:54;92088.41;;;-3.36;100.00
6395;BME280;3230;42.588;23.358;2023-02-16T00:21:20;92081.69;;;-3.45;100.00
6395;BME280;3230;42.588;23.358;2023-02-16T00:23:46;92082.34;;;-3.51;100.00
6395;BME280;3230;42.588;23.358;2023-02-16T00:26:18;92086.81;;;-3.45;100.00
6395;BME280;3230;42.588;23.358;2023-02-16T00:28:44;92080.25;;;-3.48;100.00
6395;BME280;3230;42.588;23.358;2023-02-16T00:31:21;92071.94;;;-3.58;100.00
6395;BME280;3230;42.588;23.358;2023-02-16T00:33:47;92071.78;;;-3.57;100.00
6395;BME280;3230;42.588;23.358;2023-02-16T00:36:13;92083.78;;;-3.65;100.00
6395;BME280;3230;42.588;23.358;2023-02-16T00:38:39;92078.03;;;-3.59;100.00
6395;BME280;3230;42.588;23.358;2023-02-16T00:41:04;92075.47;;;-3.59;100.00
6395;BME280;3230;42.588;23.358;2023-02-16T00:43:30;92078.00;;;-3.51;100.00
6395;BME280;3230;42.588;23.358;2023-02-16T00:45:56;92076.25;;;-3.59;100.00
6395;BME280;3230;42.588;23.358;2023-02-16T00:48:22;92071.13;;;-3.59;100.00
6395;BME280;3230;42.588;23.358;2023-02-16T00:50:48;92077.06;;;-3.58;100.00
6395;BME280;3230;42.588;23.358;2023-02-16T00:53:14;92072.09;;;-3.60;100.00
6395;BME280;3230;42.588;23.358;2023-02-16T00:55:41;92072.56;;;-3.56;100.00
6395;BME280;3230;42.588;23.358;2023-02-16T01:00:45;92074.00;;;-3.62;100.00
6395;BME280;3230;42.588;23.358;2023-02-16T01:03:17;92075.78;;;-3.62;100.00
6395;BME280;3230;42.588;23.358;2023-02-16T01:05:44;92072.44;;;-3.71;100.00
6395;BME280;3230;42.588;23.358;2023-02-16T01:08:18;92067.78;;;-3.76;100.00
6395;BME280;3230;42.588;23.358;2023-02-16T01:11:03;92068.44;;;-3.74;100.00
6395;BME280;3230;42.588;23.358;2023-02-16T01:13:41;92056.91;;;-3.78;100.00
6395;BME280;3230;42.588;23.358;2023-02-16T01:16:16;92054.19;;;-3.76;100.00
6395;BME280;3230;42.588;23.358;2023-02-16T01:18:42;92058.34;;;-3.75;100.00
6395;BME280;3230;42.588;23.358;2023-02-16T01:21:07;92056.44;;;-3.73;100.00
6395;BME280;3230;42.588;23.358;2023-02-16T01:23:34;92050.03;;;-3.77;100.00
6395;BME280;3230;42.588;23.358;2023-02-16T01:26:00;92049.69;;;-3.82;100.00
6395;BME280;3230;42.588;23.358;2023-02-16T01:28:25;92045.88;;;-3.78;100.00
6395;BME280;3230;42.588;23.358;2023-02-16T01:30:51;92025.38;;;-3.95;100.00
6395;BME280;3230;42.588;23.358;2023-02-16T01:33:18;92039.63;;;-3.92;100.00
6395;BME280;3230;42.588;23.358;2023-02-16T01:35:44;92046.53;;;-3.84;100.00
6395;BME280;3230;42.588;23.358;2023-02-16T01:38:27;92040.44;;;-3.83;100.00
6395;BME280;3230;42.588;23.358;2023-02-16T01:44:02;92033.84;;;-3.86;100.00
6395;BME280;3230;42.588;23.358;2023-02-16T01:46:43;92033.72;;;-3.93;100.00
6395;BME280;3230;42.588;23.358;2023-02-16T01:49:12;92025.72;;;-3.98;100.00
6395;BME280;3230;42.588;23.358;2023-02-16T01:52:13;92025.72;;;-3.98;100.00
6395;BME280;3230;42.588;23.358;2023-02-16T01:54:51;92022.22;;;-3.97;100.00
6395;BME280;3230;42.588;23.358;2023-02-16T01:57:40;92022.81;;;-3.95;100.00
6395;BME280;3230;42.588;23.358;2023-02-16T02:02:48;92023.00;;;-3.96;100.00
6395;BME280;3230;42.588;23.358;2023-02-16T02:05:27;92016.59;;;-4.00;100.00
6395;BME280;3230;42.588;23.358;2023-02-16T02:08:34;92019.47;;;-4.04;100.00
6395;BME280;3230;42.588;23.358;2023-02-16T02:16:20;92021.91;;;-4.10;100.00
6395;BME280;3230;42.588;23.358;2023-02-16T02:18:47;92020.78;;;-4.08;100.00
6395;BME280;3230;42.588;23.358;2023-02-16T02:27:20;92024.28;;;-4.09;100.00
6395;BME280;3230;42.588;23.358;2023-02-16T02:32:53;92024.59;;;-4.12;100.00
6395;BME280;3230;42.588;23.358;2023-02-16T02:38:11;92017.41;;;-4.33;100.00
6395;BME280;3230;42.588;23.358;2023-02-16T02:40:59;92022.19;;;-4.30;100.00
6395;BME280;3230;42.588;23.358;2023-02-16T02:43:51;92019.97;;;-4.33;100.00
6395;BME280;3230;42.588;23.358;2023-02-16T02:46:32;92011.66;;;-4.35;100.00
6395;BME280;3230;42.588;23.358;2023-02-16T02:48:59;92010.03;;;-4.28;100.00
6395;BME280;3230;42.588;23.358;2023-02-16T02:51:24;92012.59;;;-4.20;100.00
6395;BME280;3230;42.588;23.358;2023-02-16T02:56:48;91999.47;;;-4.17;100.00
6395;BME280;3230;42.588;23.358;2023-02-16T02:59:36;92016.59;;;-4.34;100.00
6395;BME280;3230;42.588;23.358;2023-02-16T03:02:23;92021.88;;;-4.27;100.00
6395;BME280;3230;42.588;23.358;2023-02-16T03:04:51;92019.63;;;-4.22;100.00
6395;BME280;3230;42.588;23.358;2023-02-16T03:07:20;92011.66;;;-4.27;100.00
6395;BME280;3230;42.588;23.358;2023-02-16T03:09:47;92006.53;;;-4.27;100.00
6395;BME280;3230;42.588;23.358;2023-02-16T03:12:32;92015.34;;;-4.21;100.00
6395;BME280;3230;42.588;23.358;2023-02-16T03:15:11;92010.38;;;-4.14;100.00
6395;BME280;3230;42.588;23.358;2023-02-16T03:17:38;92010.84;;;-4.11;100.00
6395;BME280;3230;42.588;23.358;2023-02-16T03:20:23;92022.50;;;-4.08;100.00
6395;BME280;3230;42.588;23.358;2023-02-16T03:23:08;92015.47;;;-4.06;100.00
6395;BME280;3230;42.588;23.358;2023-02-16T03:25:52;92007.63;;;-4.13;100.00
6395;BME280;3230;42.588;23.358;2023-02-16T03:28:39;92013.56;;;-4.12;100.00
6395;BME280;3230;42.588;23.358;2023-02-16T03:31:30;92002.19;;;-4.18;100.00
6395;BME280;3230;42.588;23.358;2023-02-16T03:33:56;92018.19;;;-4.24;100.00
6395;BME280;3230;42.588;23.358;2023-02-16T03:36:27;92012.31;;;-4.25;100.00
6395;BME280;3230;42.588;23.358;2023-02-16T03:38:54;92014.38;;;-4.28;100.00
6395;BME280;3230;42.588;23.358;2023-02-16T03:41:20;92001.25;;;-4.34;100.00
6395;BME280;3230;42.588;23.358;2023-02-16T03:43:46;92002.53;;;-4.29;100.00
6395;BME280;3230;42.588;23.358;2023-02-16T03:46:11;92010.53;;;-4.32;100.00
6395;BME280;3230;42.588;23.358;2023-02-16T03:48:37;92011.00;;;-4.29;100.00
6395;BME280;3230;42.588;23.358;2023-02-16T03:51:02;92015.16;;;-4.28;100.00
6395;BME280;3230;42.588;23.358;2023-02-16T03:53:27;92016.78;;;-4.19;100.00
6395;BME280;3230;42.588;23.358;2023-02-16T03:55:53;92012.91;;;-4.23;100.00
6395;BME280;3230;42.588;23.358;2023-02-16T03:58:21;92017.25;;;-4.23;100.00
6395;BME280;3230;42.588;23.358;2023-02-16T04:00:48;92014.22;;;-4.19;100.00
6395;BME280;3230;42.588;23.358;2023-02-16T04:03:13;92011.66;;;-4.27;100.00
6395;BME280;3230;42.588;23.358;2023-02-16T04:05:39;92005.88;;;-4.21;100.00
6395;BME280;3230;42.588;23.358;2023-02-16T04:08:06;92012.78;;;-4.29;100.00
6395;BME280;3230;42.588;23.358;2023-02-16T04:10:31;92015.00;;;-4.26;100.00
6395;BME280;3230;42.588;23.358;2023-02-16T04:12:57;92003.97;;;-4.35;100.00
6395;BME280;3230;42.588;23.358;2023-02-16T04:15:25;92005.09;;;-4.38;100.00
6395;BME280;3230;42.588;23.358;2023-02-16T04:17:51;92007.81;;;-4.47;100.00
6395;BME280;3230;42.588;23.358;2023-02-16T04:20:19;92007.97;;;-4.49;100.00
6395;BME280;3230;42.588;23.358;2023-02-16T04:22:45;92002.53;;;-4.62;100.00
6395;BME280;3230;42.588;23.358;2023-02-16T04:25:12;91998.03;;;-4.52;100.00
6395;BME280;3230;42.588;23.358;2023-02-16T04:27:38;91995.81;;;-4.55;100.00
6395;BME280;3230;42.588;23.358;2023-02-16T04:30:05;91991.97;;;-4.51;100.00
6395;BME280;3230;42.588;23.358;2023-02-16T04:32:30;91986.06;;;-4.52;100.00
6395;BME280;3230;42.588;23.358;2023-02-16T04:34:56;91987.81;;;-4.36;100.00
6395;BME280;3230;42.588;23.358;2023-02-16T04:37:21;91995.03;;;-4.31;100.00
6395;BME280;3230;42.588;23.358;2023-02-16T04:39:47;92002.38;;;-4.28;100.00
6395;BME280;3230;42.588;23.358;2023-02-16T04:42:12;91987.66;;;-4.26;100.00
6395;BME280;3230;42.588;23.358;2023-02-16T04:44:37;91993.09;;;-4.29;100.00
6395;BME280;3230;42.588;23.358;2023-02-16T04:47:03;91997.25;;;-4.36;100.00
6395;BME280;3230;42.588;23.358;2023-02-16T04:49:29;92002.69;;;-4.23;100.00
6395;BME280;3230;42.588;23.358;2023-02-16T04:51:54;91995.50;;;-4.27;100.00
6395;BME280;3230;42.588;23.358;2023-02-16T04:54:19;91989.56;;;-4.28;100.00
6395;BME280;3230;42.588;23.358;2023-02-16T04:56:45;92001.72;;;-4.30;100.00
6395;BME280;3230;42.588;23.358;2023-02-16T04:59:11;92002.53;;;-4.29;100.00
6395;BME280;3230;42.588;23.358;2023-02-16T05:01:37;92006.03;;;-4.39;100.00
6395;BME280;3230;42.588;23.358;2023-02-16T05:04:02;92005.25;;;-4.31;100.00
6395;BME280;3230;42.588;23.358;2023-02-16T05:06:28;92009.09;;;-4.35;100.00
6395;BME280;3230;42.588;23.358;2023-02-16T05:08:53;92014.53;;;-4.38;100.00
6395;BME280;3230;42.588;23.358;2023-02-16T05:11:19;92007.63;;;-4.46;100.00
6395;BME280;3230;42.588;23.358;2023-02-16T05:14:03;92021.53;;;-4.48;100.00
6395;BME280;3230;42.588;23.358;2023-02-16T05:16:47;92016.75;;;-4.43;100.00
6395;BME280;3230;42.588;23.358;2023-02-16T05:19:12;92015.47;;;-4.47;100.00
6395;BME280;3230;42.588;23.358;2023-02-16T05:21:37;92012.28;;;-4.50;100.00
6395;BME280;3230;42.588;23.358;2023-02-16T05:24:05;92021.53;;;-4.48;100.00
6395;BME280;3230;42.588;23.358;2023-02-16T05:26:32;92023.63;;;-4.52;100.00
6395;BME280;3230;42.588;23.358;2023-02-16T05:28:58;92020.13;;;-4.43;100.00
6395;BME280;3230;42.588;23.358;2023-02-16T05:31:24;92028.13;;;-4.13;100.00
6395;BME280;3230;42.588;23.358;2023-02-16T05:33:50;92030.81;;;-3.81;100.00
6395;BME280;3230;42.588;23.358;2023-02-16T05:36:16;92027.13;;;-3.71;100.00
6395;BME280;3230;42.588;23.358;2023-02-16T05:38:42;92034.63;;;-3.53;100.00
6395;BME280;3230;42.588;23.358;2023-02-16T05:41:07;92031.66;;;-3.25;100.00
6395;BME280;3230;42.588;23.358;2023-02-16T05:43:33;92033.13;;;-2.59;100.00
6395;BME280;3230;42.588;23.358;2023-02-16T05:45:58;92040.34;;;-1.70;100.00
6395;BME280;3230;42.588;23.358;2023-02-16T05:48:24;92039.16;;;-1.14;100.00
6395;BME280;3230;42.588;23.358;2023-02-16T05:50:53;92046.91;;;-0.62;100.00
6395;BME280;3230;42.588;23.358;2023-02-16T05:53:19;92043.81;;;0.01;100.00
6395;BME280;3230;42.588;23.358;2023-02-16T05:55:44;92058.94;;;0.32;100.00
6395;BME280;3230;42.588;23.358;2023-02-16T05:58:09;92064.00;;;0.75;100.00
6395;BME280;3230;42.588;23.358;2023-02-16T06:00:35;92061.50;;;1.24;100.00
6395;BME280;3230;42.588;23.358;2023-02-16T06:03:02;92065.66;;;1.67;99.12
6395;BME280;3230;42.588;23.358;2023-02-16T06:05:28;92057.47;;;2.59;97.28
6395;BME280;3230;42.588;23.358;2023-02-16T06:07:53;92068.63;;;3.65;93.04
6395;BME280;3230;42.588;23.358;2023-02-16T06:10:22;92075.69;;;4.28;89.33
6395;BME280;3230;42.588;23.358;2023-02-16T06:12:47;92077.25;;;5.12;86.95
6395;BME280;3230;42.588;23.358;2023-02-16T06:15:12;92088.34;;;6.00;79.69
6395;BME280;3230;42.588;23.358;2023-02-16T06:17:38;92085.28;;;6.64;78.66
6395;BME280;3230;42.588;23.358;2023-02-16T06:20:04;92102.88;;;6.93;74.68
6395;BME280;3230;42.588;23.358;2023-02-16T06:22:30;92099.41;;;7.23;70.84
6395;BME280;3230;42.588;23.358;2023-02-16T06:24:55;92102.03;;;6.26;71.21
6395;BME280;3230;42.588;23.358;2023-02-16T06:27:21;92106.31;;;5.83;70.99
6395;BME280;3230;42.588;23.358;2023-02-16T06:29:46;92113.09;;;5.84;71.63
6395;BME280;3230;42.588;23.358;2023-02-16T06:32:11;92110.63;;;6.57;67.79
6395;BME280;3230;42.588;23.358;2023-02-16T06:34:37;92113.47;;;5.88;67.14
6395;BME280;3230;42.588;23.358;2023-02-16T06:37:02;92104.88;;;5.06;69.55
6395;BME280;3230;42.588;23.358;2023-02-16T06:39:28;92113.16;;;5.40;70.05
6395;BME280;3230;42.588;23.358;2023-02-16T06:41:53;92116.72;;;4.45;72.77
6395;BME280;3230;42.588;23.358;2023-02-16T06:44:19;92126.72;;;4.41;73.29
6395;BME280;3230;42.588;23.358;2023-02-16T06:46:46;92111.50;;;4.13;75.32
6395;BME280;3230;42.588;23.358;2023-02-16T06:49:13;92110.09;;;3.65;78.15
6395;BME280;3230;42.588;23.358;2023-02-16T06:51:39;92115.88;;;3.67;79.28
6395;BME280;3230;42.588;23.358;2023-02-16T06:54:05;92114.53;;;4.03;77.41
6395;BME280;3230;42.588;23.358;2023-02-16T06:56:31;92116.75;;;3.34;80.55
6395;BME280;3230;42.588;23.358;2023-02-16T06:58:56;92111.38;;;3.22;82.85
6395;BME280;3230;42.588;23.358;2023-02-16T07:01:22;92110.75;;;3.33;81.56
6395;BME280;3230;42.588;23.358;2023-02-16T07:03:53;92115.56;;;3.16;83.06
6395;BME280;3230;42.588;23.358;2023-02-16T07:06:19;92104.41;;;3.23;83.25
6395;BME280;3230;42.588;23.358;2023-02-16T07:08:44;92111.00;;;3.12;84.81
6395;BME280;3230;42.588;23.358;2023-02-16T07:11:10;92104.44;;;2.96;86.52
6395;BME280;3230;42.588;23.358;2023-02-16T07:13:36;92115.38;;;3.25;85.98
6395;BME280;3230;42.588;23.358;2023-02-16T07:16:05;92105.97;;;3.37;84.82
6395;BME280;3230;42.588;23.358;2023-02-16T07:18:32;92114.13;;;3.41;83.49
6395;BME280;3230;42.588;23.358;2023-02-16T07:20:58;92105.03;;;3.11;86.00
6395;BME280;3230;42.588;23.358;2023-02-16T07:23:23;92099.63;;;3.13;85.89
6395;BME280;3230;42.588;23.358;2023-02-16T07:25:49;92094.69;;;2.84;88.53
6395;BME280;3230;42.588;23.358;2023-02-16T07:28:14;92084.72;;;2.81;90.03
6395;BME280;3230;42.588;23.358;2023-02-16T07:30:40;92090.22;;;3.97;87.45
6395;BME280;3230;42.588;23.358;2023-02-16T07:33:06;92078.72;;;5.26;81.44
6395;BME280;3230;42.588;23.358;2023-02-16T07:35:33;92085.53;;;6.32;77.94
6395;BME280;3230;42.588;23.358;2023-02-16T07:37:58;92098.28;;;7.30;71.45
6395;BME280;3230;42.588;23.358;2023-02-16T07:40:24;92095.97;;;7.81;68.85
6395;BME280;3230;42.588;23.358;2023-02-16T07:42:50;92090.69;;;8.75;66.27
6395;BME280;3230;42.588;23.358;2023-02-16T07:45:15;92098.09;;;10.35;55.55
6395;BME280;3230;42.588;23.358;2023-02-16T07:47:41;92096.41;;;11.71;50.10
6395;BME280;3230;42.588;23.358;2023-02-16T07:50:07;92085.03;;;13.33;43.18
6395;BME280;3230;42.588;23.358;2023-02-16T07:52:33;92079.97;;;13.99;41.17
6395;BME280;3230;42.588;23.358;2023-02-16T07:54:59;92072.63;;;13.85;43.47
6395;BME280;3230;42.588;23.358;2023-02-16T07:57:25;92056.03;;;14.45;39.40
6395;BME280;3230;42.588;23.358;2023-02-16T07:59:52;92073.44;;;15.95;38.06
6395;BME280;3230;42.588;23.358;2023-02-16T08:02:18;92073.47;;;16.62;35.24
6395;BME280;3230;42.588;23.358;2023-02-16T08:04:47;92079.53;;;17.06;34.81
6395;BME280;3230;42.588;23.358;2023-02-16T08:07:14;92089.47;;;16.96;34.50
6395;BME280;3230;42.588;23.358;2023-02-16T08:09:40;92082.34;;;17.29;33.94
6395;BME280;3230;42.588;23.358;2023-02-16T08:12:10;92082.91;;;17.78;33.36
6395;BME280;3230;42.588;23.358;2023-02-16T08:14:37;92080.41;;;16.77;33.00
6395;BME280;3230;42.588;23.358;2023-02-16T08:17:03;92085.25;;;16.94;33.31
6395;BME280;3230;42.588;23.358;2023-02-16T08:19:29;92094.38;;;17.21;33.71
6395;BME280;3230;42.588;23.358;2023-02-16T08:21:55;92094.78;;;16.71;34.79
6395;BME280;3230;42.588;23.358;2023-02-16T08:24:21;92096.44;;;16.86;32.92
6395;BME280;3230;42.588;23.358;2023-02-16T08:26:49;92092.13;;;16.96;32.86
6395;BME280;3230;42.588;23.358;2023-02-16T08:29:15;92097.09;;;17.35;32.39
6395;BME280;3230;42.588;23.358;2023-02-16T08:31:45;92100.84;;;16.72;32.83
6395;BME280;3230;42.588;23.358;2023-02-16T08:34:12;92103.03;;;16.70;33.43
6395;BME280;3230;42.588;23.358;2023-02-16T08:36:40;92101.06;;;16.75;33.53
6395;BME280;3230;42.588;23.358;2023-02-16T08:39:10;92097.63;;;16.99;33.91
6395;BME280;3230;42.588;23.358;2023-02-16T08:41:37;92096.63;;;16.71;33.01
6395;BME280;3230;42.588;23.358;2023-02-16T08:44:04;92101.72;;;16.86;32.62
6395;BME280;3230;42.588;23.358;2023-02-16T08:46:31;92103.00;;;16.94;33.11
6395;BME280;3230;42.588;23.358;2023-02-16T08:48:59;92105.00;;;16.78;33.69
6395;BME280;3230;42.588;23.358;2023-02-16T08:51:27;92094.72;;;16.76;33.50
6395;BME280;3230;42.588;23.358;2023-02-16T08:53:53;92104.31;;;17.82;31.49
6395;BME280;3230;42.588;23.358;2023-02-16T08:56:20;92093.63;;;16.58;34.04
6395;BME280;3230;42.588;23.358;2023-02-16T08:58:45;92093.81;;;15.94;35.42
6395;BME280;3230;42.588;23.358;2023-02-16T09:01:12;92097.03;;;17.40;32.06
6395;BME280;3230;42.588;23.358;2023-02-16T09:03:39;92103.59;;;16.18;33.62
6395;BME280;3230;42.588;23.358;2023-02-16T09:06:10;92092.50;;;15.28;35.63
6395;BME280;3230;42.588;23.358;2023-02-16T09:08:37;92086.56;;;13.86;37.84
6395;BME280;3230;42.588;23.358;2023-02-16T09:11:05;92098.53;;;12.22;41.27
6395;BME280;3230;42.588;23.358;2023-02-16T09:13:33;92086.34;;;10.60;46.60
6395;BME280;3230;42.588;23.358;2023-02-16T09:16:04;92090.41;;;9.62;51.26
6395;BME280;3230;42.588;23.358;2023-02-16T09:18:30;92089.09;;;8.91;54.80
6395;BME280;3230;42.588;23.358;2023-02-16T09:20:57;92088.66;;;8.36;57.26
6395;BME280;3230;42.588;23.358;2023-02-16T09:23:27;92086.41;;;7.99;60.38
6395;BME280;3230;42.588;23.358;2023-02-16T09:25:52;92084.44;;;7.65;63.62
6395;BME280;3230;42.588;23.358;2023-02-16T09:28:18;92074.34;;;7.10;66.75
6395;BME280;3230;42.588;23.358;2023-02-16T09:30:44;92070.38;;;6.95;67.65
6395;BME280;3230;42.588;23.358;2023-02-16T09:33:10;92075.28;;;7.27;67.01
6395;BME280;3230;42.588;23.358;2023-02-16T09:35:37;92065.84;;;7.02;69.50
6395;BME280;3230;42.588;23.358;2023-02-16T09:38:03;92073.25;;;7.17;68.93
6395;BME280;3230;42.588;23.358;2023-02-16T09:40:29;92070.16;;;7.20;68.70
6395;BME280;3230;42.588;23.358;2023-02-16T09:45:44;92056.34;;;6.96;69.35
6395;BME280;3230;42.588;23.358;2023-02-16T09:48:30;92058.84;;;6.91;70.81
6395;BME280;3230;42.588;23.358;2023-02-16T09:50:58;92057.44;;;6.77;70.95
6395;BME280;3230;42.588;23.358;2023-02-16T09:53:36;92053.59;;;6.67;73.44
6395;BME280;3230;42.588;23.358;2023-02-16T09:56:33;92056.31;;;6.72;71.76
6395;BME280;3230;42.588;23.358;2023-02-16T09:59:03;92056.22;;;6.67;71.31
6395;BME280;3230;42.588;23.358;2023-02-16T10:02:33;92053.88;;;6.47;73.14
6395;BME280;3230;42.588;23.358;2023-02-16T10:04:47;92054.66;;;6.48;73.00
6395;BME280;3230;42.588;23.358;2023-02-16T10:10:12;92050.53;;;6.28;74.46
6395;BME280;3230;42.588;23.358;2023-02-16T10:12:50;92049.47;;;6.17;74.97
6395;BME280;3230;42.588;23.358;2023-02-16T10:15:24;92040.66;;;6.18;74.99
6395;BME280;3230;42.588;23.358;2023-02-16T10:17:55;92042.72;;;6.16;75.08
6395;BME280;3230;42.588;23.358;2023-02-16T10:20:30;92048.53;;;6.30;75.51
6395;BME280;3230;42.588;23.358;2023-02-16T10:25:45;92040.22;;;6.52;74.06
6395;BME280;3230;42.588;23.358;2023-02-16T10:28:18;92048.06;;;6.64;72.78
6395;BME280;3230;42.588;23.358;2023-02-16T10:31:12;92034.13;;;6.70;73.18
6395;BME280;3230;42.588;23.358;2023-02-16T10:33:54;92042.75;;;6.94;71.16
6395;BME280;3230;42.588;23.358;2023-02-16T10:39:23;92038.34;;;7.07;69.62
6395;BME280;3230;42.588;23.358;2023-02-16T10:42:02;92046.13;;;7.30;71.08
6395;BME280;3230;42.588;23.358;2023-02-16T10:44:36;92037.41;;;7.36;68.95
6395;BME280;3230;42.588;23.358;2023-02-16T10:47:13;92039.81;;;7.38;67.97
6395;BME280;3230;42.588;23.358;2023-02-16T10:49:42;92033.19;;;7.35;69.55
6395;BME280;3230;42.588;23.358;2023-02-16T10:52:08;92033.44;;;7.46;65.99
6395;BME280;3230;42.588;23.358;2023-02-16T10:54:34;92033.34;;;7.41;66.03
6395;BME280;3230;42.588;23.358;2023-02-16T10:57:02;92035.47;;;7.44;67.34
6395;BME280;3230;42.588;23.358;2023-02-16T11:01:58;92020.97;;;7.36;68.64
6395;BME280;3230;42.588;23.358;2023-02-16T11:04:55;92023.59;;;7.36;67.01
6395;BME280;3230;42.588;23.358;2023-02-16T11:07:28;92016.19;;;7.33;68.38
6395;BME280;3230;42.588;23.358;2023-02-16T11:09:57;92015.53;;;7.26;67.17
6395;BME280;3230;42.588;23.358;2023-02-16T11:12:29;92017.56;;;7.35;67.10
6395;BME280;3230;42.588;23.358;2023-02-16T11:15:05;92014.84;;;7.42;70.50
6395;BME280;3230;42.588;23.358;2023-02-16T11:17:50;92015.19;;;7.34;66.39
6395;BME280;3230;42.588;23.358;2023-02-16T11:20:28;92008.69;;;7.60;67.63
6395;BME280;3230;42.588;23.358;2023-02-16T11:23:23;92014.22;;;7.76;68.45
6395;BME280;3230;42.588;23.358;2023-02-16T11:26:05;92011.28;;;7.72;67.98
6395;BME280;3230;42.588;23.358;2023-02-16T11:28:42;92007.81;;;7.83;67.00
6395;BME280;3230;42.588;23.358;2023-02-16T11:31:13;92009.78;;;7.76;66.22
6395;BME280;3230;42.588;23.358;2023-02-16T11:33:42;92003.53;;;7.77;67.33
6395;BME280;3230;42.588;23.358;2023-02-16T11:36:31;92009.03;;;7.64;66.16
6395;BME280;3230;42.588;23.358;2023-02-16T11:39:07;91985.75;;;7.62;67.05
6395;BME280;3230;42.588;23.358;2023-02-16T11:44:53;91999.09;;;7.78;69.44
6395;BME280;3230;42.588;23.358;2023-02-16T11:47:38;91995.78;;;7.82;64.63
6395;BME280;3230;42.588;23.358;2023-02-16T11:50:20;91996.84;;;7.69;65.58
6395;BME280;3230;42.588;23.358;2023-02-16T11:52:49;91997.22;;;7.61;65.72
6395;BME280;3230;42.588;23.358;2023-02-16T11:55:33;91998.00;;;7.74;66.10
6395;BME280;3230;42.588;23.358;2023-02-16T11:58:12;91996.41;;;7.73;65.59
6395;BME280;3230;42.588;23.358;2023-02-16T12:00:43;91997.31;;;7.66;65.15
6395;BME280;3230;42.588;23.358;2023-02-16T12:03:40;91995.06;;;7.58;65.14
6395;BME280;3230;42.588;23.358;2023-02-16T12:06:15;91991.31;;;7.66;64.91
6395;BME280;3230;42.588;23.358;2023-02-16T12:14:59;91971.91;;;8.03;63.90
6395;BME280;3230;42.588;23.358;2023-02-16T12:23:34;91961.69;;;8.18;61.07
6395;BME280;3230;42.588;23.358;2023-02-16T12:39:18;91955.56;;;8.41;61.23
6395;BME280;3230;42.588;23.358;2023-02-16T12:44:48;91950.28;;;8.53;58.84
6395;BME280;3230;42.588;23.358;2023-02-16T12:47:29;91948.38;;;8.48;59.89
6395;BME280;3230;42.588;23.358;2023-02-16T12:50:03;91944.31;;;8.41;59.51
6395;BME280;3230;42.588;23.358;2023-02-16T12:52:39;91947.75;;;8.58;58.25
6395;BME280;3230;42.588;23.358;2023-02-16T12:55:16;91947.84;;;8.63;58.86
6395;BME280;3230;42.588;23.358;2023-02-16T13:00:43;91940.91;;;8.74;58.93
6395;BME280;3230;42.588;23.358;2023-02-16T13:03:26;91929.53;;;8.80;58.23
6395;BME280;3230;42.588;23.358;2023-02-16T13:11:46;91929.41;;;8.92;58.31
6395;BME280;3230;42.588;23.358;2023-02-16T13:14:19;91925.31;;;8.96;56.82
6395;BME280;3230;42.588;23.358;2023-02-16T13:16:50;91930.03;;;9.00;56.94
6395;BME280;3230;42.588;23.358;2023-02-16T13:19:17;91927.69;;;8.81;57.28
6395;BME280;3230;42.588;23.358;2023-02-16T13:24:39;91921.38;;;8.77;58.50
6395;BME280;3230;42.588;23.358;2023-02-16T13:27:17;91923.34;;;8.87;57.93
6395;BME280;3230;42.588;23.358;2023-02-16T13:35:40;91915.97;;;8.84;56.74
6395;BME280;3230;42.588;23.358;2023-02-16T13:43:39;91912.41;;;8.73;56.56
6395;BME280;3230;42.588;23.358;2023-02-16T13:46:51;91914.69;;;8.86;54.92
6395;BME280;3230;42.588;23.358;2023-02-16T13:49:44;91913.69;;;8.70;56.09
6395;BME280;3230;42.588;23.358;2023-02-16T13:54:56;91911.88;;;8.71;56.51
6395;BME280;3230;42.588;23.358;2023-02-16T14:02:57;91907.41;;;8.88;56.29
6395;BME280;3230;42.588;23.358;2023-02-16T14:05:43;91916.28;;;8.87;56.89
6395;BME280;3230;42.588;23.358;2023-02-16T14:11:08;91906.84;;;8.86;57.03
6395;BME280;3230;42.588;23.358;2023-02-16T14:16:28;91908.66;;;8.63;56.55
6395;BME280;3230;42.588;23.358;2023-02-16T14:19:01;91905.59;;;8.72;57.37
6395;BME280;3230;42.588;23.358;2023-02-16T14:21:39;91897.00;;;8.71;56.62
6395;BME280;3230;42.588;23.358;2023-02-16T14:26:52;91908.72;;;8.69;57.16
6395;BME280;3230;42.588;23.358;2023-02-16T14:29:22;91905.72;;;8.60;57.34
6395;BME280;3230;42.588;23.358;2023-02-16T14:40:20;91904.91;;;8.59;57.85
6395;BME280;3230;42.588;23.358;2023-02-16T14:42:55;91906.97;;;8.57;59.13
6395;BME280;3230;42.588;23.358;2023-02-16T14:51:12;91900.63;;;8.36;60.11
6395;BME280;3230;42.588;23.358;2023-02-16T14:56:48;91894.91;;;7.88;62.56
6395;BME280;3230;42.588;23.358;2023-02-16T14:59:33;91894.09;;;7.71;63.25
6395;BME280;3230;42.588;23.358;2023-02-16T15:02:29;91896.53;;;7.60;64.67
6395;BME280;3230;42.588;23.358;2023-02-16T15:04:55;91903.50;;;7.43;65.75
6395;BME280;3230;42.588;23.358;2023-02-16T15:07:21;91905.22;;;7.37;66.24
6395;BME280;3230;42.588;23.358;2023-02-16T15:09:52;91893.91;;;7.31;66.14
6395;BME280;3230;42.588;23.358;2023-02-16T15:12:25;91897.38;;;7.08;66.89
6395;BME280;3230;42.588;23.358;2023-02-16T15:14:56;91899.56;;;6.87;67.24
6395;BME280;3230;42.588;23.358;2023-02-16T15:22:55;91898.69;;;6.34;71.21
6395;BME280;3230;42.588;23.358;2023-02-16T15:28:01;91894.25;;;5.99;72.98
6395;BME280;3230;42.588;23.358;2023-02-16T15:30:33;91886.50;;;5.92;73.14
6395;BME280;3230;42.588;23.358;2023-02-16T15:33:05;91892.81;;;5.85;73.41
6395;BME280;3230;42.588;23.358;2023-02-16T15:35:39;91892.22;;;5.71;73.17
6395;BME280;3230;42.588;23.358;2023-02-16T15:40:38;91890.78;;;5.44;73.12
6395;BME280;3230;42.588;23.358;2023-02-16T15:45:52;91888.91;;;5.21;74.15
6395;BME280;3230;42.588;23.358;2023-02-16T15:48:22;91892.88;;;5.05;74.28
6395;BME280;3230;42.588;23.358;2023-02-16T15:50:51;91892.66;;;4.88;74.45
6395;BME280;3230;42.588;23.358;2023-02-16T15:53:35;91897.94;;;4.82;74.69
6395;BME280;3230;42.588;23.358;2023-02-16T15:56:03;91893.97;;;4.79;74.61